Time;durP1;ratioP1;P1;durP2;ratioP2;P2;SDS_P1;SDS_P2;PMS_P1;PMS_P2;Temp;Humidity;BMP_temperature;BMP_pressure;BME280_temperature;BME280_humidity;BME280_pressure;Samples;Min_cycle;Max_cycle;Signal;HPM_P1;HPM_P2
2024/04/13 00:02:19;;;;;;;12.50;3.33;;;12.20;99.90;;;;;;5505015;26;19992;-44
2024/04/13 00:04:44;;;;;;;16.42;4.70;;;12.20;99.90;;;;;;5508485;26;20010;-44
2024/04/13 00:07:10;;;;;;;12.75;3.83;;;12.20;99.90;;;;;;5507496;26;20061;-44
2024/04/13 00:09:36;;;;;;;13.13;4.20;;;12.20;99.90;;;;;;5507820;26;20002;-45
2024/04/13 00:12:01;;;;;;;16.05;3.67;;;12.20;99.90;;;;;;5508618;26;19990;-46
2024/04/13 00:14:27;;;;;;;19.25;4.72;;;12.20;99.90;;;;;;5508347;26;20058;-44
2024/04/13 00:16:52;;;;;;;15.13;5.13;;;12.20;99.90;;;;;;5508260;26;20047;-44
2024/04/13 00:19:18;;;;;;;15.57;4.57;;;12.20;99.90;;;;;;5508440;26;20042;-44
2024/04/13 00:21:44;;;;;;;16.27;4.88;;;12.20;99.90;;;;;;5508454;26;19990;-44
2024/04/13 00:24:12;;;;;;;17.98;5.20;;;12.20;99.90;;;;;;5508434;26;20001;-44
2024/04/13 00:26:38;;;;;;;19.17;4.68;;;12.20;99.90;;;;;;5508313;26;19997;-44
2024/04/13 00:29:06;;;;;;;13.43;3.95;;;12.20;99.90;;;;;;5508156;26;19986;-45
2024/04/13 00:31:33;;;;;;;16.52;4.97;;;12.20;99.90;;;;;;5508575;26;20152;-44
2024/04/13 00:33:58;;;;;;;15.88;4.30;;;12.30;99.90;;;;;;5508274;26;19990;-44
2024/04/13 00:36:24;;;;;;;17.38;4.90;;;12.30;99.90;;;;;;5508224;26;20039;-44
2024/04/13 00:38:50;;;;;;;14.32;4.15;;;12.20;99.90;;;;;;5508078;26;19994;-44
2024/04/13 00:41:18;;;;;;;17.73;3.97;;;12.30;99.90;;;;;;5506816;26;20204;-44
2024/04/13 00:43:43;;;;;;;17.08;4.63;;;12.30;99.90;;;;;;5507803;26;20071;-44
2024/04/13 00:46:16;;;;;;;11.68;3.65;;;12.30;99.90;;;;;;5477008;26;20008;-44
2024/04/13 00:48:44;;;;;;;12.70;3.13;;;12.30;99.90;;;;;;5507216;26;20010;-44
2024/04/13 00:51:12;;;;;;;17.23;3.85;;;12.30;99.90;;;;;;5477304;26;19991;-45
2024/04/13 00:53:38;;;;;;;12.65;4.22;;;12.40;99.90;;;;;;5508003;26;19990;-44
2024/04/13 00:56:06;;;;;;;13.57;4.00;;;12.40;99.90;;;;;;5508057;26;19998;-45
2024/04/13 00:58:32;;;;;;;14.70;3.63;;;12.40;99.90;;;;;;5507980;26;19987;-44
2024/04/13 01:00:58;;;;;;;7.50;2.97;;;12.40;99.90;;;;;;5507553;26;19990;-45
2024/04/13 01:03:24;;;;;;;13.35;3.88;;;12.40;99.90;;;;;;5506955;26;20010;-46
2024/04/13 01:05:50;;;;;;;13.25;4.07;;;12.40;99.90;;;;;;5508022;26;19986;-45
2024/04/13 01:08:16;;;;;;;15.10;3.42;;;12.40;99.90;;;;;;5507935;26;19993;-44
2024/04/13 01:10:42;;;;;;;12.05;3.33;;;12.40;99.90;;;;;;5507799;26;19993;-45
2024/04/13 01:13:11;;;;;;;9.38;3.63;;;12.40;99.90;;;;;;5506179;26;19990;-44
2024/04/13 01:15:38;;;;;;;12.50;3.90;;;12.40;99.90;;;;;;5505743;26;19990;-45
2024/04/13 01:18:04;;;;;;;9.18;2.90;;;12.40;99.90;;;;;;5506763;26;20207;-45
2024/04/13 01:20:31;;;;;;;11.93;3.33;;;12.30;99.90;;;;;;5507617;26;19996;-46
2024/04/13 01:22:57;;;;;;;18.08;3.65;;;12.40;99.90;;;;;;5507622;26;20074;-47
2024/04/13 01:25:22;;;;;;;15.13;3.90;;;12.40;99.90;;;;;;5476497;26;19993;-44
2024/04/13 01:27:48;;;;;;;14.65;3.78;;;12.40;99.90;;;;;;5506519;26;20035;-46
2024/04/13 01:30:15;;;;;;;11.95;3.30;;;12.40;99.90;;;;;;5507567;26;20010;-46
2024/04/13 01:32:41;;;;;;;14.55;3.72;;;12.40;99.90;;;;;;5507304;26;20001;-47
2024/04/13 01:35:10;;;;;;;14.30;4.13;;;12.40;99.90;;;;;;5507286;26;20198;-47
2024/04/13 01:37:37;;;;;;;11.73;2.83;;;12.40;99.90;;;;;;5507332;26;19990;-46
2024/04/13 01:40:07;;;;;;;13.90;3.63;;;12.40;99.90;;;;;;5507332;26;19993;-48
2024/04/13 01:42:33;;;;;;;11.73;3.65;;;12.40;99.90;;;;;;5507396;26;19994;-46
2024/04/13 01:44:58;;;;;;;11.30;3.78;;;12.40;99.90;;;;;;5507049;26;20008;-47
2024/04/13 01:47:24;;;;;;;12.25;3.60;;;12.40;99.90;;;;;;5507259;26;19986;-45
2024/04/13 01:49:50;;;;;;;15.32;4.50;;;12.30;99.90;;;;;;5507284;26;20014;-47
2024/04/13 01:52:15;;;;;;;7.47;2.72;;;12.30;99.90;;;;;;5507144;26;19998;-46
2024/04/13 01:54:41;;;;;;;11.35;4.38;;;12.30;99.90;;;;;;5506982;26;20194;-44
2024/04/13 01:57:07;;;;;;;11.90;3.80;;;12.30;99.90;;;;;;5506772;26;20057;-46
2024/04/13 01:59:32;;;;;;;16.83;3.83;;;12.30;99.90;;;;;;5506829;26;19990;-43
2024/04/13 02:01:58;;;;;;;14.10;4.45;;;12.30;99.90;;;;;;5506562;26;19997;-46
2024/04/13 02:04:24;;;;;;;11.43;3.08;;;12.30;99.90;;;;;;5506923;26;20171;-45
2024/04/13 02:06:49;;;;;;;18.10;4.82;;;12.30;99.90;;;;;;5506804;26;19997;-43
2024/04/13 02:09:18;;;;;;;12.82;3.10;;;12.30;99.90;;;;;;5506540;26;19998;-44
2024/04/13 02:11:45;;;;;;;11.40;3.33;;;12.30;99.90;;;;;;5507005;26;20014;-46
2024/04/13 02:14:11;;;;;;;12.77;3.83;;;12.30;99.90;;;;;;5506936;26;19997;-44
2024/04/13 02:16:37;;;;;;;8.30;3.00;;;12.30;99.90;;;;;;5506876;26;20039;-46
2024/04/13 02:19:04;;;;;;;8.88;2.80;;;12.30;99.90;;;;;;5506345;26;20176;-44
2024/04/13 02:21:30;;;;;;;9.43;3.20;;;12.30;99.90;;;;;;5506637;26;20001;-45
2024/04/13 02:23:56;;;;;;;11.45;3.05;;;12.30;99.90;;;;;;5475263;26;19997;-44
2024/04/13 02:26:21;;;;;;;9.88;3.28;;;12.30;99.90;;;;;;5505943;26;19986;-45
2024/04/13 02:28:47;;;;;;;11.30;3.28;;;12.30;99.90;;;;;;5506497;26;19993;-44
2024/04/13 02:31:13;;;;;;;12.85;3.15;;;12.30;99.90;;;;;;5506054;26;20002;-45
2024/04/13 02:33:39;;;;;;;8.27;2.78;;;12.30;99.90;;;;;;5506436;26;19986;-48
2024/04/13 02:36:05;;;;;;;11.90;3.47;;;12.30;99.90;;;;;;5506388;26;19993;-45
2024/04/13 02:38:32;;;;;;;9.00;2.72;;;12.30;99.90;;;;;;5475478;26;20011;-44
2024/04/13 02:41:00;;;;;;;10.02;3.00;;;12.30;99.90;;;;;;5506013;26;19998;-44
2024/04/13 02:43:27;;;;;;;9.13;2.70;;;12.30;99.90;;;;;;5506443;26;20061;-44
2024/04/13 02:45:52;;;;;;;11.40;2.95;;;12.30;99.90;;;;;;5505192;26;19986;-48
2024/04/13 02:48:21;;;;;;;9.02;2.80;;;12.30;99.90;;;;;;5506412;26;20156;-45
2024/04/13 02:50:48;;;;;;;5.13;2.38;;;12.30;99.90;;;;;;5506270;26;19993;-44
2024/04/13 02:53:13;;;;;;;5.60;2.40;;;12.30;99.90;;;;;;5505733;26;20028;-44
2024/04/13 02:55:39;;;;;;;12.13;3.30;;;12.30;99.90;;;;;;5506213;26;20090;-46
2024/04/13 02:58:05;;;;;;;7.30;2.70;;;12.30;99.90;;;;;;5505227;26;20041;-45
2024/04/13 03:00:30;;;;;;;9.65;2.40;;;12.30;99.90;;;;;;5506039;26;20260;-45
2024/04/13 03:02:57;;;;;;;7.13;2.40;;;12.30;99.90;;;;;;5505895;26;20005;-45
2024/04/13 03:05:22;;;;;;;8.18;2.60;;;12.30;99.90;;;;;;5506216;26;19998;-45
2024/04/13 03:07:48;;;;;;;8.75;2.63;;;12.30;99.90;;;;;;5504966;26;19986;-45
2024/04/13 03:10:14;;;;;;;6.35;2.30;;;12.30;99.90;;;;;;5506114;26;19997;-45
2024/04/13 03:12:40;;;;;;;8.20;2.22;;;12.30;99.90;;;;;;5504999;26;19996;-44
2024/04/13 03:15:06;;;;;;;6.50;2.20;;;12.30;99.90;;;;;;5505526;26;20040;-44
2024/04/13 03:17:32;;;;;;;6.75;2.10;;;12.30;99.90;;;;;;5505689;26;20056;-44
2024/04/13 03:19:58;;;;;;;9.13;2.67;;;12.30;99.90;;;;;;5505819;26;19993;-44
2024/04/13 03:22:24;;;;;;;7.55;2.22;;;12.30;99.90;;;;;;5506029;26;19999;-45
2024/04/13 03:24:49;;;;;;;6.35;2.25;;;12.30;99.90;;;;;;5505711;26;19986;-44
2024/04/13 03:27:15;;;;;;;5.72;1.80;;;12.30;99.90;;;;;;5505479;26;19998;-44
2024/04/13 03:29:40;;;;;;;8.10;2.20;;;12.30;99.90;;;;;;5505838;26;19986;-45
2024/04/13 03:32:07;;;;;;;7.68;2.90;;;12.30;99.90;;;;;;5505391;26;19990;-44
2024/04/13 03:34:33;;;;;;;9.32;2.33;;;12.30;99.90;;;;;;5505621;26;19993;-48
2024/04/13 03:36:58;;;;;;;3.60;1.98;;;12.30;99.90;;;;;;5503106;26;19986;-45
2024/04/13 03:39:26;;;;;;;5.65;2.00;;;12.30;99.90;;;;;;5505508;26;19994;-48
2024/04/13 03:41:52;;;;;;;4.65;1.80;;;12.30;99.90;;;;;;5504508;26;19997;-46
2024/04/13 03:44:18;;;;;;;5.70;1.77;;;12.30;99.90;;;;;;5505556;26;19992;-44
2024/04/13 03:46:44;;;;;;;5.55;2.00;;;12.30;99.90;;;;;;5505289;26;20036;-44
2024/04/13 03:49:09;;;;;;;5.25;1.95;;;12.30;99.90;;;;;;5505122;26;20173;-46
2024/04/13 03:51:35;;;;;;;6.47;1.75;;;12.30;99.90;;;;;;5504576;26;19990;-46
2024/04/13 03:54:02;;;;;;;4.45;1.63;;;12.30;99.90;;;;;;5505336;26;20016;-46
2024/04/13 03:56:27;;;;;;;5.78;1.90;;;12.30;99.90;;;;;;5505389;26;19990;-45
2024/04/13 03:58:53;;;;;;;7.05;2.00;;;12.30;99.90;;;;;;5505002;26;19997;-46
2024/04/13 04:01:18;;;;;;;4.20;1.60;;;12.30;99.90;;;;;;5504861;26;19996;-45
2024/04/13 04:03:44;;;;;;;3.38;1.48;;;12.30;99.90;;;;;;5505060;26;20043;-44
2024/04/13 04:06:10;;;;;;;3.65;1.60;;;12.30;99.90;;;;;;5505006;26;19994;-45
2024/04/13 04:08:35;;;;;;;6.40;2.03;;;12.30;99.90;;;;;;5505045;26;19997;-44
2024/04/13 04:11:01;;;;;;;7.82;1.77;;;12.30;99.90;;;;;;5504560;26;20113;-44
2024/04/13 04:13:27;;;;;;;5.82;1.65;;;12.30;99.90;;;;;;5504903;26;19997;-44
2024/04/13 04:15:52;;;;;;;4.65;1.70;;;12.30;99.90;;;;;;5504655;26;20036;-44
2024/04/13 04:18:18;;;;;;;4.53;1.60;;;12.30;99.90;;;;;;5504916;26;20011;-44
2024/04/13 04:20:47;;;;;;;3.75;1.67;;;12.30;99.90;;;;;;5504994;26;20001;-45
2024/04/13 04:23:13;;;;;;;3.92;1.40;;;12.30;99.90;;;;;;5504430;26;19998;-45
2024/04/13 04:25:39;;;;;;;4.38;1.73;;;12.40;99.90;;;;;;5504607;26;19987;-45
2024/04/13 04:28:05;;;;;;;1.95;1.27;;;12.30;99.90;;;;;;5504683;26;19990;-45
2024/04/13 04:30:31;;;;;;;1.90;1.02;;;12.30;99.90;;;;;;5504740;26;20010;-45
2024/04/13 04:32:57;;;;;;;5.40;1.35;;;12.30;99.90;;;;;;5504446;26;20000;-45
2024/04/13 04:35:22;;;;;;;4.20;1.13;;;12.30;99.90;;;;;;5504480;26;19993;-44
2024/04/13 04:37:48;;;;;;;4.55;1.27;;;12.30;99.90;;;;;;5504437;26;20002;-45
2024/04/13 04:40:14;;;;;;;2.97;1.05;;;12.30;99.90;;;;;;5504313;26;19986;-45
2024/04/13 04:42:39;;;;;;;2.08;0.98;;;12.40;99.90;;;;;;5504387;26;19986;-44
2024/04/13 04:45:05;;;;;;;6.72;1.55;;;12.40;99.90;;;;;;5503999;26;19986;-45
2024/04/13 04:47:33;;;;;;;4.30;1.48;;;12.40;99.90;;;;;;5503976;26;19990;-44
2024/04/13 04:49:59;;;;;;;1.98;0.90;;;12.40;99.90;;;;;;5507367;26;20156;-45
2024/04/13 04:52:24;;;;;;;3.08;1.10;;;12.30;99.90;;;;;;5507749;26;19994;-44
2024/04/13 04:54:50;;;;;;;4.22;1.10;;;12.40;99.90;;;;;;5507763;26;19990;-44
2024/04/13 04:57:15;;;;;;;1.38;0.90;;;12.40;99.90;;;;;;5507554;26;20110;-46
2024/04/13 04:59:41;;;;;;;1.42;0.90;;;12.40;99.90;;;;;;5508045;26;19997;-44
2024/04/13 05:02:07;;;;;;;2.38;1.10;;;12.40;99.90;;;;;;5506861;26;19986;-44
2024/04/13 05:04:32;;;;;;;4.97;1.00;;;12.40;99.90;;;;;;5507867;26;19993;-46
2024/04/13 05:06:58;;;;;;;3.58;1.23;;;12.30;99.90;;;;;;5507532;26;19994;-44
2024/04/13 05:09:23;;;;;;;3.75;1.02;;;12.40;99.90;;;;;;5507787;26;19986;-44
2024/04/13 05:11:49;;;;;;;4.00;0.90;;;12.40;99.90;;;;;;5507699;26;19986;-44
2024/04/13 05:14:17;;;;;;;3.63;0.93;;;12.40;99.90;;;;;;5507517;26;19994;-46
2024/04/13 05:16:42;;;;;;;3.92;1.63;;;12.40;99.90;;;;;;5506682;26;20171;-44
2024/04/13 05:19:08;;;;;;;3.22;0.93;;;12.30;99.90;;;;;;5507345;26;19998;-45
2024/04/13 05:21:34;;;;;;;2.30;1.00;;;12.30;99.90;;;;;;5507584;26;19996;-45
2024/04/13 05:23:59;;;;;;;3.13;1.00;;;12.30;99.90;;;;;;5507540;26;19990;-45
2024/04/13 05:26:25;;;;;;;2.95;1.00;;;12.30;99.90;;;;;;5476158;26;19990;-45
2024/04/13 05:28:51;;;;;;;2.38;1.10;;;12.30;99.90;;;;;;5507369;26;20077;-45
2024/04/13 05:31:17;;;;;;;1.27;1.00;;;12.30;99.90;;;;;;5506437;26;20079;-45
2024/04/13 05:33:44;;;;;;;3.60;1.00;;;12.30;99.90;;;;;;5507076;26;19994;-44
2024/04/13 05:36:10;;;;;;;3.97;0.80;;;12.30;99.90;;;;;;5507324;26;20111;-44
2024/04/13 05:38:35;;;;;;;1.77;0.85;;;12.30;99.90;;;;;;5506877;26;20036;-44
2024/04/13 05:41:01;;;;;;;3.30;1.10;;;12.30;99.90;;;;;;5506568;26;19998;-45
2024/04/13 05:43:27;;;;;;;0.98;0.80;;;12.30;99.90;;;;;;5507033;26;20040;-45
2024/04/13 05:45:52;;;;;;;3.60;1.00;;;12.30;99.90;;;;;;5506628;26;20057;-44
2024/04/13 05:48:21;;;;;;;4.03;1.20;;;12.30;99.90;;;;;;5506932;26;19990;-44
2024/04/13 05:50:56;;;;;;;4.53;1.10;;;12.20;99.90;;;;;;5506848;26;19997;-44
2024/04/13 05:53:22;;;;;;;0.93;0.80;;;12.30;99.90;;;;;;5506277;26;20012;-44
2024/04/13 05:55:49;;;;;;;3.83;1.30;;;12.20;99.90;;;;;;5506080;26;20014;-44
2024/04/13 05:58:14;;;;;;;3.50;1.15;;;12.20;99.90;;;;;;5506066;26;20031;-44
2024/04/13 06:00:42;;;;;;;2.65;0.90;;;12.20;99.90;;;;;;5505697;26;20002;-44
2024/04/13 06:03:07;;;;;;;2.78;0.90;;;12.20;99.90;;;;;;5506522;26;19994;-44
2024/04/13 06:05:33;;;;;;;3.17;0.95;;;12.20;99.90;;;;;;5506596;26;20092;-45
2024/04/13 06:07:58;;;;;;;2.72;0.95;;;12.20;99.90;;;;;;5506670;26;19998;-44
2024/04/13 06:10:24;;;;;;;4.57;1.10;;;12.20;99.90;;;;;;5506919;26;20048;-45
2024/04/13 06:12:50;;;;;;;3.75;1.00;;;12.20;99.90;;;;;;5506715;26;19994;-45
2024/04/13 06:15:15;;;;;;;3.17;1.17;;;12.20;99.90;;;;;;5506233;26;20191;-45
2024/04/13 06:17:41;;;;;;;2.70;1.40;;;12.20;99.90;;;;;;5505863;26;19997;-44
2024/04/13 06:20:11;;;;;;;2.72;1.10;;;12.20;99.90;;;;;;5506542;26;20061;-44
2024/04/13 06:22:36;;;;;;;4.10;1.33;;;12.20;99.90;;;;;;5505828;26;19993;-46
2024/04/13 06:25:03;;;;;;;9.57;1.85;;;12.20;99.90;;;;;;5505315;26;20169;-47
2024/04/13 06:27:30;;;;;;;2.17;1.27;;;12.20;99.90;;;;;;5505604;26;20157;-45
2024/04/13 06:29:56;;;;;;;5.20;1.48;;;12.20;99.90;;;;;;5506451;26;20009;-44
2024/04/13 06:32:21;;;;;;;4.10;1.20;;;12.20;99.90;;;;;;5506090;26;19986;-44
2024/04/13 06:34:47;;;;;;;4.88;1.45;;;12.20;99.90;;;;;;5504976;26;19990;-44
2024/04/13 06:37:13;;;;;;;2.15;1.20;;;12.20;99.90;;;;;;5505811;26;20002;-45
2024/04/13 06:39:39;;;;;;;3.83;1.40;;;12.20;99.90;;;;;;5506096;26;19986;-44
2024/04/13 06:42:05;;;;;;;3.90;1.30;;;12.20;99.90;;;;;;5505958;26;19997;-44
2024/04/13 06:44:31;;;;;;;4.03;1.13;;;12.20;99.90;;;;;;5506349;26;19987;-44
2024/04/13 06:46:56;;;;;;;3.80;1.00;;;12.20;99.90;;;;;;5505322;26;19998;-46
2024/04/13 06:49:22;;;;;;;5.30;1.73;;;12.20;99.90;;;;;;5505742;26;19986;-44
2024/04/13 06:51:48;;;;;;;3.72;1.40;;;12.20;99.90;;;;;;5505523;26;19986;-44
2024/04/13 06:54:14;;;;;;;4.35;1.50;;;12.20;99.90;;;;;;5505753;26;19997;-45
2024/04/13 06:56:40;;;;;;;6.70;1.60;;;12.20;99.90;;;;;;5505638;26;19986;-44
2024/04/13 06:59:07;;;;;;;6.18;1.90;;;12.20;99.90;;;;;;5505799;26;19997;-43
2024/04/13 07:01:32;;;;;;;3.67;1.73;;;12.20;99.90;;;;;;5505480;26;20048;-43
2024/04/13 07:03:58;;;;;;;4.88;1.70;;;12.20;99.90;;;;;;5505650;26;19998;-44
2024/04/13 07:06:25;;;;;;;4.70;2.10;;;12.20;99.90;;;;;;5504617;26;19986;-43
2024/04/13 07:08:51;;;;;;;4.95;1.67;;;12.20;99.90;;;;;;5504919;26;19993;-44
2024/04/13 07:11:16;;;;;;;9.98;2.58;;;12.20;99.90;;;;;;5505257;26;19986;-44
2024/04/13 07:13:42;;;;;;;3.58;1.73;;;12.20;99.90;;;;;;5504845;26;20153;-44
2024/04/13 07:16:09;;;;;;;5.95;2.70;;;12.20;99.90;;;;;;5505393;26;19994;-44
2024/04/13 07:18:35;;;;;;;1.55;1.02;;;12.20;99.90;;;;;;5505430;26;20064;-44
2024/04/13 07:21:00;;;;;;;6.88;2.70;;;12.20;99.90;;;;;;5504250;26;19993;-43
2024/04/13 07:23:26;;;;;;;11.45;4.57;;;12.20;99.90;;;;;;5505029;26;19986;-43
2024/04/13 07:26:01;;;;;;;8.75;3.03;;;12.20;99.90;;;;;;5505207;26;20031;-43
2024/04/13 07:28:27;;;;;;;10.70;3.90;;;12.20;99.90;;;;;;5504667;26;19990;-43
2024/04/13 07:30:53;;;;;;;4.05;2.00;;;12.20;99.90;;;;;;5504822;26;20002;-46
2024/04/13 07:33:19;;;;;;;7.78;2.50;;;12.20;99.90;;;;;;5504064;26;20043;-43
2024/04/13 07:35:45;;;;;;;8.25;2.95;;;12.20;99.90;;;;;;5505174;26;19997;-43
2024/04/13 07:38:11;;;;;;;7.45;3.00;;;12.20;99.90;;;;;;5505123;26;20102;-43
2024/04/13 07:40:37;;;;;;;8.27;2.90;;;12.20;99.90;;;;;;5504989;26;19996;-46
2024/04/13 07:43:03;;;;;;;5.28;2.75;;;12.30;99.90;;;;;;5504639;26;19986;-44
2024/04/13 07:45:29;;;;;;;6.40;2.63;;;12.20;99.90;;;;;;5505175;26;19990;-43
2024/04/13 07:47:54;;;;;;;5.22;2.20;;;12.30;99.90;;;;;;5504436;26;20034;-43
2024/04/13 07:50:20;;;;;;;6.20;2.55;;;12.30;99.90;;;;;;5504316;26;20106;-44
2024/04/13 07:52:46;;;;;;;6.53;3.30;;;12.30;99.90;;;;;;5503352;26;19998;-44
2024/04/13 07:55:12;;;;;;;11.25;4.40;;;12.40;99.90;;;;;;5503011;26;19986;-44
2024/04/13 07:57:37;;;;;;;6.50;2.83;;;12.30;99.90;;;;;;5504475;26;19986;-44
2024/04/13 08:00:04;;;;;;;5.75;2.63;;;12.40;99.90;;;;;;5504530;26;19998;-43
2024/04/13 08:02:30;;;;;;;7.57;2.70;;;12.40;99.90;;;;;;5504154;26;20165;-45
2024/04/13 08:04:56;;;;;;;7.50;3.75;;;12.40;99.90;;;;;;5503063;26;20032;-44
2024/04/13 08:07:21;;;;;;;4.82;2.38;;;12.40;99.90;;;;;;5503888;26;19986;-44
2024/04/13 08:09:47;;;;;;;4.22;1.67;;;12.40;99.90;;;;;;5504548;26;20006;-43
2024/04/13 08:12:12;;;;;;;5.10;2.63;;;12.50;99.90;;;;;;5504627;26;19997;-44
2024/04/13 08:14:38;;;;;;;7.55;3.95;;;12.60;99.90;;;;;;5504460;26;19986;-45
2024/04/13 08:17:04;;;;;;;4.03;1.58;;;12.60;99.90;;;;;;5503236;26;19993;-44
2024/04/13 08:19:30;;;;;;;2.00;1.10;;;12.70;99.90;;;;;;5504047;26;19993;-44
2024/04/13 08:21:56;;;;;;;3.25;1.58;;;12.70;99.90;;;;;;5503937;26;20010;-44
2024/04/13 08:24:21;;;;;;;2.58;1.02;;;12.80;99.90;;;;;;5506050;26;20016;-45
2024/04/13 08:26:47;;;;;;;1.38;0.88;;;12.90;99.90;;;;;;5507363;26;20036;-46
2024/04/13 08:29:12;;;;;;;2.20;0.68;;;12.90;99.90;;;;;;5507599;26;20039;-44
2024/04/13 08:31:38;;;;;;;4.18;0.90;;;13.10;99.90;;;;;;5507839;26;20071;-45
2024/04/13 08:34:05;;;;;;;1.63;0.88;;;13.10;99.90;;;;;;5507101;26;19986;-44
2024/04/13 08:36:31;;;;;;;2.33;0.70;;;13.20;99.90;;;;;;5507443;26;19990;-46
2024/04/13 08:38:57;;;;;;;3.35;0.88;;;13.20;99.90;;;;;;5507054;26;19994;-44
2024/04/13 08:41:47;;;;;;;3.90;1.50;;;13.30;99.90;;;;;;5506193;26;20161;-48
2024/04/13 08:44:13;;;;;;;5.82;2.30;;;13.20;99.90;;;;;;5506716;26;20043;-46
2024/04/13 08:46:38;;;;;;;1.52;0.93;;;13.20;99.90;;;;;;5507134;26;19994;-44
2024/04/13 08:49:04;;;;;;;2.80;1.10;;;13.20;99.90;;;;;;5506437;26;19996;-47
2024/04/13 08:51:30;;;;;;;4.25;2.13;;;13.10;99.90;;;;;;5506015;26;20044;-45
2024/04/13 08:53:56;;;;;;;4.15;2.42;;;13.10;99.90;;;;;;5507042;26;19990;-44
2024/04/13 08:56:23;;;;;;;3.10;1.50;;;13.00;99.90;;;;;;5505966;26;19991;-43
2024/04/13 08:58:51;;;;;;;6.18;2.55;;;12.90;99.90;;;;;;5505759;26;20160;-44
2024/04/13 09:01:25;;;;;;;2.78;1.35;;;12.80;99.90;;;;;;5506108;26;19993;-44
2024/04/13 09:03:50;;;;;;;2.55;1.15;;;12.80;99.90;;;;;;5506241;26;20002;-44
2024/04/13 09:06:17;;;;;;;4.75;2.15;;;12.70;99.90;;;;;;5506761;26;20070;-44
2024/04/13 09:08:44;;;;;;;3.83;1.40;;;12.70;99.90;;;;;;5505541;26;20060;-44
2024/04/13 09:11:09;;;;;;;2.88;1.55;;;12.60;99.90;;;;;;5475078;26;20064;-44
2024/04/13 09:13:37;;;;;;;6.07;2.17;;;12.50;99.90;;;;;;5504737;26;19996;-44
2024/04/13 09:16:02;;;;;;;4.60;2.25;;;12.50;99.90;;;;;;5504975;26;19993;-44
2024/04/13 09:18:28;;;;;;;2.70;1.20;;;12.50;99.90;;;;;;5505433;26;20022;-45
2024/04/13 09:20:54;;;;;;;2.67;1.30;;;12.40;99.90;;;;;;5505369;26;20056;-43
2024/04/13 09:23:20;;;;;;;3.60;1.40;;;12.40;99.90;;;;;;5506574;26;20180;-44
2024/04/13 09:25:45;;;;;;;2.78;1.65;;;12.40;99.90;;;;;;5506612;26;19986;-44
2024/04/13 09:28:12;;;;;;;2.92;1.40;;;12.40;99.90;;;;;;5505601;26;19986;-44
2024/04/13 09:30:39;;;;;;;5.00;1.50;;;12.30;99.90;;;;;;5505520;26;20048;-45
2024/04/13 09:33:10;;;;;;;16.80;8.93;;;12.40;99.90;;;;;;5505649;26;20018;-43
2024/04/13 09:35:35;;;;;;;7.13;3.35;;;12.40;99.90;;;;;;5504131;26;19986;-45
2024/04/13 09:38:01;;;;;;;14.02;9.23;;;12.40;99.90;;;;;;5505430;26;20016;-46
2024/04/13 09:40:30;;;;;;;24.67;15.65;;;12.50;99.90;;;;;;5505563;26;19993;-44
2024/04/13 09:42:56;;;;;;;36.58;19.80;;;12.50;99.90;;;;;;5474901;26;19990;-45
2024/04/13 09:45:21;;;;;;;8.73;3.17;;;12.50;99.90;;;;;;5505720;26;20156;-46
2024/04/13 09:47:47;;;;;;;10.45;5.18;;;12.50;99.90;;;;;;5505675;26;20145;-45
2024/04/13 09:50:13;;;;;;;7.97;3.58;;;12.50;99.90;;;;;;5505990;26;19994;-48
2024/04/13 09:52:38;;;;;;;5.07;3.38;;;12.50;99.90;;;;;;5505324;26;19993;-44
2024/04/13 09:55:04;;;;;;;5.03;2.03;;;12.50;99.90;;;;;;5505233;26;19986;-45
2024/04/13 09:57:30;;;;;;;4.47;1.83;;;12.50;99.90;;;;;;5504682;26;20213;-45
2024/04/13 09:59:56;;;;;;;59.45;33.15;;;12.60;99.90;;;;;;5505122;26;20009;-45
2024/04/13 10:02:22;;;;;;;10.20;4.75;;;12.60;99.90;;;;;;5502643;26;19986;-45
2024/04/13 10:04:48;;;;;;;5.88;1.80;;;12.70;99.90;;;;;;5501482;26;20044;-47
2024/04/13 10:07:14;;;;;;;15.13;10.95;;;12.70;99.90;;;;;;5503354;26;19986;-46
2024/04/13 10:09:40;;;;;;;7.65;5.13;;;12.80;99.90;;;;;;5505422;26;20176;-47
2024/04/13 10:12:08;;;;;;;2.13;1.42;;;12.80;99.90;;;;;;5505369;26;19994;-44
2024/04/13 10:14:34;;;;;;;8.90;3.78;;;12.90;99.90;;;;;;5504390;26;20129;-45
2024/04/13 10:17:01;;;;;;;3.05;1.00;;;12.90;99.90;;;;;;5474474;26;20036;-46
2024/04/13 10:19:27;;;;;;;3.63;1.50;;;12.90;99.90;;;;;;5504986;26;20152;-48
2024/04/13 10:21:57;;;;;;;6.72;3.40;;;12.70;99.90;;;;;;5505760;26;19990;-46
2024/04/13 10:24:23;;;;;;;5.78;1.92;;;12.70;99.90;;;;;;5505539;26;19986;-46
2024/04/13 10:26:49;;;;;;;2.10;0.93;;;12.70;99.90;;;;;;5505290;26;19986;-47
2024/04/13 10:29:23;;;;;;;3.90;1.40;;;12.50;99.90;;;;;;5504955;26;19986;-45
2024/04/13 10:31:48;;;;;;;3.65;2.03;;;12.50;99.90;;;;;;5504165;26;19994;-45
2024/04/13 10:34:14;;;;;;;2.25;1.38;;;12.50;99.90;;;;;;5503831;26;19994;-46
2024/04/13 10:36:40;;;;;;;6.68;2.55;;;12.40;99.90;;;;;;5473052;26;19990;-46
2024/04/13 10:39:07;;;;;;;4.22;1.30;;;12.40;99.90;;;;;;5504314;26;20001;-44
2024/04/13 10:41:36;;;;;;;3.25;0.90;;;12.30;99.90;;;;;;5504346;26;19997;-45
2024/04/13 10:44:03;;;;;;;5.18;1.73;;;12.30;99.90;;;;;;5503519;26;19997;-46
2024/04/13 10:46:29;;;;;;;1.70;0.80;;;12.30;99.90;;;;;;5503119;26;19990;-44
2024/04/13 10:48:55;;;;;;;2.25;0.73;;;12.40;99.90;;;;;;5504607;26;19986;-45
2024/04/13 10:51:21;;;;;;;3.95;0.90;;;12.30;99.90;;;;;;5504227;26;20039;-45
2024/04/13 10:53:47;;;;;;;5.72;1.65;;;12.40;99.90;;;;;;5504344;26;19994;-46
2024/04/13 10:56:13;;;;;;;3.90;1.55;;;12.30;99.90;;;;;;5504573;26;20056;-45
2024/04/13 10:58:39;;;;;;;6.38;2.30;;;12.30;99.90;;;;;;5503791;26;19990;-46
2024/04/13 11:01:05;;;;;;;4.88;1.90;;;12.40;99.90;;;;;;5504056;26;20020;-45
2024/04/13 11:03:31;;;;;;;3.30;1.70;;;12.50;99.90;;;;;;5504711;26;19986;-46
2024/04/13 11:05:57;;;;;;;3.10;1.02;;;12.50;99.90;;;;;;5472981;26;20006;-46
2024/04/13 11:08:26;;;;;;;31.77;13.55;;;12.40;99.90;;;;;;5504043;26;20064;-46
2024/04/13 11:10:59;;;;;;;2.78;1.13;;;12.40;99.90;;;;;;5504614;26;19997;-49
2024/04/13 11:13:25;;;;;;;4.00;1.85;;;12.50;99.90;;;;;;5502855;26;20057;-43
2024/04/13 11:15:51;;;;;;;4.30;2.03;;;12.40;99.90;;;;;;5471121;26;19986;-43
2024/04/13 11:18:17;;;;;;;5.30;1.30;;;12.40;99.90;;;;;;5503379;26;19986;-47
2024/04/13 11:20:44;;;;;;;8.77;1.40;;;12.40;99.90;;;;;;5503115;26;20169;-46
2024/04/13 11:23:09;;;;;;;4.57;1.60;;;12.40;99.90;;;;;;5502524;26;19990;-44
2024/04/13 11:25:36;;;;;;;4.95;1.90;;;12.40;99.90;;;;;;5503730;26;19994;-44
2024/04/13 11:28:03;;;;;;;8.40;3.60;;;12.40;99.90;;;;;;5503274;26;20098;-44
2024/04/13 11:30:29;;;;;;;4.03;1.17;;;12.50;99.90;;;;;;5503632;26;20031;-44
2024/04/13 11:32:55;;;;;;;2.25;1.10;;;12.50;99.90;;;;;;5503645;26;20006;-44
2024/04/13 11:35:21;;;;;;;3.35;0.80;;;12.50;99.90;;;;;;5503124;26;20126;-45
2024/04/13 11:37:59;;;;;;;4.53;1.30;;;12.50;99.90;;;;;;5504101;26;19990;-43
2024/04/13 11:40:32;;;;;;;7.13;2.65;;;12.60;99.90;;;;;;5503779;26;19990;-45
2024/04/13 11:43:01;;;;;;;3.22;1.45;;;12.60;99.90;;;;;;5503988;26;19986;-44
2024/04/13 11:45:27;;;;;;;3.83;1.52;;;12.60;99.90;;;;;;5503455;26;20144;-44
2024/04/13 11:47:53;;;;;;;4.60;2.33;;;12.60;99.90;;;;;;5502985;26;19986;-43
2024/04/13 11:50:19;;;;;;;7.10;2.22;;;12.60;99.90;;;;;;5502328;26;20039;-45
2024/04/13 11:52:45;;;;;;;5.35;2.38;;;12.70;99.90;;;;;;5504003;26;19997;-44
2024/04/13 11:55:11;;;;;;;8.38;2.63;;;12.70;99.90;;;;;;5503021;26;19987;-45
2024/04/13 11:57:49;;;;;;;9.18;2.47;;;12.80;99.90;;;;;;5502678;26;19990;-45
2024/04/13 12:00:16;;;;;;;7.97;3.10;;;12.80;99.90;;;;;;5503283;26;19997;-44
2024/04/13 12:02:45;;;;;;;8.77;3.22;;;12.80;99.90;;;;;;5503069;26;20002;-46
2024/04/13 12:05:11;;;;;;;10.45;2.88;;;12.80;99.90;;;;;;5500162;26;20039;-44
2024/04/13 12:07:36;;;;;;;11.52;3.65;;;12.80;99.90;;;;;;5501664;26;20045;-42
2024/04/13 12:10:02;;;;;;;7.50;2.90;;;12.90;99.90;;;;;;5503450;26;19993;-42
2024/04/13 12:12:28;;;;;;;7.85;3.13;;;13.00;99.90;;;;;;5502481;26;19990;-44
2024/04/13 12:14:53;;;;;;;6.10;2.00;;;12.90;99.90;;;;;;5502091;26;19990;-42
2024/04/13 12:17:19;;;;;;;6.35;2.33;;;13.00;99.90;;;;;;5501886;26;19997;-43
2024/04/13 12:19:45;;;;;;;4.68;2.58;;;13.00;99.90;;;;;;5500731;26;19990;-42
2024/04/13 12:22:11;;;;;;;9.23;3.22;;;13.00;99.90;;;;;;5502010;26;19990;-42
2024/04/13 12:24:36;;;;;;;10.40;2.47;;;13.10;99.90;;;;;;5499597;26;19997;-42
2024/04/13 12:27:04;;;;;;;8.63;2.60;;;13.10;99.90;;;;;;5501812;26;19994;-43
2024/04/13 12:29:31;;;;;;;10.25;2.88;;;13.20;99.90;;;;;;5502665;26;19990;-44
2024/04/13 12:31:57;;;;;;;6.25;2.53;;;13.30;99.90;;;;;;5501943;26;19986;-42
2024/04/13 12:34:22;;;;;;;10.20;3.08;;;13.30;99.90;;;;;;5501641;26;19993;-43
2024/04/13 12:36:48;;;;;;;11.75;3.08;;;13.40;99.90;;;;;;5501717;26;20018;-46
2024/04/13 12:39:16;;;;;;;7.97;2.22;;;13.40;99.90;;;;;;5502091;26;19997;-42